createdAt,value
2022-07-25T00:03:43.918Z,59.27
2022-07-25T00:08:46.397Z,59.36
2022-07-25T00:13:52.025Z,59.68
2022-07-25T00:19:20.066Z,59.96
2022-07-25T00:24:22.461Z,60.21
2022-07-25T00:29:24.892Z,60.26
2022-07-25T00:34:40.146Z,60.42
2022-07-25T00:39:42.371Z,60.70
2022-07-25T00:44:44.767Z,60.99
2022-07-25T00:49:47.128Z,61.25
2022-07-25T00:54:49.624Z,61.31
2022-07-25T00:59:55.912Z,61.40
2022-07-25T01:04:58.954Z,61.66
2022-07-25T01:10:02.120Z,62.17
2022-07-25T01:15:05.037Z,62.15
2022-07-25T01:20:17.674Z,62.32
2022-07-25T01:25:21.929Z,62.38
2022-07-25T01:30:25.457Z,62.48
2022-07-25T01:35:27.872Z,62.51
2022-07-25T01:40:30.146Z,62.91
2022-07-25T01:45:35.604Z,62.94
2022-07-25T01:50:41.050Z,63.20
2022-07-25T01:55:46.018Z,63.56
2022-07-25T02:01:03.938Z,63.84
2022-07-25T02:06:29.064Z,64.28
2022-07-25T02:12:00.660Z,64.54
2022-07-25T02:18:08.052Z,64.81
2022-07-25T02:23:35.532Z,64.95
2022-07-25T02:29:40.994Z,65.13
2022-07-25T02:35:15.659Z,65.32
2022-07-25T02:40:25.607Z,65.62
2022-07-25T02:45:28.237Z,65.75
2022-07-25T02:50:36.669Z,65.89
2022-07-25T02:56:02.497Z,65.97
2022-07-25T03:01:05.106Z,66.05
2022-07-25T03:06:19.638Z,66.18
2022-07-25T03:11:27.344Z,66.32
2022-07-25T03:16:32.922Z,66.52
2022-07-25T03:21:58.446Z,66.59
2022-07-25T03:27:04.253Z,66.55
2022-07-25T03:32:28.004Z,66.73
2022-07-25T03:37:50.661Z,66.89
2022-07-25T03:43:18.123Z,67.16
2022-07-25T03:48:28.270Z,67.04
2022-07-25T03:54:24.009Z,66.41
2022-07-25T04:00:11.533Z,65.81
2022-07-25T04:05:14.031Z,65.44
2022-07-25T04:10:26.933Z,65.10
2022-07-25T04:15:39.391Z,64.98
2022-07-25T04:21:02.673Z,64.83
2022-07-25T04:26:33.813Z,64.64
2022-07-25T04:32:00.239Z,64.84
2022-07-25T04:37:23.118Z,65.09
2022-07-25T04:43:05.348Z,65.25
2022-07-25T04:48:12.747Z,65.48
2022-07-25T04:53:26.029Z,65.74
2022-07-25T04:58:50.506Z,65.93
2022-07-25T05:03:53.337Z,66.13
2022-07-25T05:09:07.170Z,66.43
2022-07-25T05:14:28.284Z,66.45
2022-07-25T05:20:00.124Z,66.58
2022-07-25T05:25:31.276Z,66.58
2022-07-25T05:30:40.167Z,66.61
2022-07-25T05:36:05.579Z,66.38
2022-07-25T05:41:15.037Z,66.45
2022-07-25T05:46:40.108Z,66.28
2022-07-25T05:51:55.920Z,65.74
2022-07-25T05:56:58.613Z,64.52
2022-07-25T06:02:02.592Z,63.34
2022-07-25T06:07:21.667Z,62.96
2022-07-25T06:12:24.519Z,62.63
2022-07-25T06:17:32.236Z,62.27
2022-07-25T06:22:34.842Z,62.26
2022-07-25T06:27:47.473Z,61.87
2022-07-25T06:33:01.740Z,61.78
2022-07-25T06:38:09.801Z,61.58
2022-07-25T06:43:15.226Z,60.96
2022-07-25T06:48:28.596Z,60.08
2022-07-25T06:53:39.570Z,60.05
2022-07-25T06:58:41.966Z,59.67
2022-07-25T07:03:44.541Z,58.86
2022-07-25T07:08:48.621Z,58.01
2022-07-25T07:13:51.474Z,57.38
2022-07-25T07:18:53.588Z,56.84
2022-07-25T07:23:59.974Z,56.22
2022-07-25T07:29:05.620Z,55.78
2022-07-25T07:34:17.400Z,54.47
2022-07-25T07:39:19.747Z,54.02
2022-07-25T07:44:32.948Z,53.60
2022-07-25T07:49:37.315Z,53.13
2022-07-25T07:54:59.502Z,52.46
2022-07-25T08:00:02.187Z,51.04
2022-07-25T08:05:22.181Z,50.04
2022-07-25T08:10:35.154Z,49.33
2022-07-25T08:16:01.194Z,48.20
2022-07-25T08:21:18.725Z,48.51
2022-07-25T08:26:31.524Z,47.50
2022-07-25T08:31:34.435Z,47.15
2022-07-25T08:36:37.173Z,45.44
2022-07-25T08:41:44.974Z,45.13
2022-07-25T08:47:11.949Z,44.67
2022-07-25T08:52:15.994Z,44.79
2022-07-25T08:57:18.333Z,44.41
2022-07-25T09:02:21.173Z,44.32
2022-07-25T09:07:43.828Z,43.66
2022-07-25T09:12:57.546Z,43.05
2022-07-25T09:18:06.291Z,43.02
2022-07-25T09:23:36.238Z,42.22
2022-07-25T09:28:55.800Z,41.55
2022-07-25T09:34:01.979Z,41.11
2022-07-25T09:39:06.835Z,40.84
2022-07-25T09:44:30.311Z,40.95
2022-07-25T09:49:52.548Z,40.49
2022-07-25T09:54:55.156Z,40.47
2022-07-25T10:00:00.471Z,39.93
2022-07-25T10:05:15.807Z,39.24
2022-07-25T10:10:28.655Z,39.19
2022-07-25T10:15:50.591Z,39.46
2022-07-25T10:20:56.257Z,38.67
2022-07-25T10:26:01.310Z,37.55
2022-07-25T10:31:03.747Z,37.21
2022-07-25T10:36:15.615Z,37.26
2022-07-25T10:41:17.907Z,37.23
2022-07-25T10:46:28.188Z,37.31
2022-07-25T10:51:41.346Z,37.06
2022-07-25T10:56:57.348Z,37.12
2022-07-25T11:02:00.647Z,36.26
2022-07-25T11:07:14.749Z,35.46
2022-07-25T11:12:20.226Z,35.48
2022-07-25T11:17:27.788Z,34.88
2022-07-25T11:22:32.233Z,34.85
2022-07-25T11:27:34.463Z,34.43
2022-07-25T11:32:57.801Z,34.33
2022-07-25T11:38:15.130Z,33.96
2022-07-25T11:43:21.670Z,33.88
2022-07-25T11:48:34.550Z,33.42
2022-07-25T11:53:55.167Z,34.66
2022-07-25T11:59:01.968Z,36.60
2022-07-25T12:04:18.644Z,37.05
2022-07-25T12:09:22.310Z,35.74
2022-07-25T12:14:24.432Z,35.42
2022-07-25T12:19:26.622Z,35.37
2022-07-25T12:24:28.672Z,34.95
2022-07-25T12:29:30.881Z,35.13
2022-07-25T12:34:33.261Z,34.95
2022-07-25T12:39:35.762Z,34.80
2022-07-25T12:44:37.844Z,34.54
2022-07-25T12:49:40.353Z,34.08
2022-07-25T12:54:58.034Z,33.45
2022-07-25T13:00:00.404Z,32.95
2022-07-25T13:05:03.916Z,32.23
2022-07-25T13:10:07.128Z,32.67
2022-07-25T13:15:09.866Z,32.74
2022-07-25T13:20:12.442Z,32.85
2022-07-25T13:25:14.954Z,32.76
2022-07-25T13:30:20.149Z,32.47
2022-07-25T13:35:31.526Z,31.87
2022-07-25T13:40:42.342Z,31.47
2022-07-25T13:45:57.609Z,31.28
2022-07-25T13:51:00.088Z,30.82
2022-07-25T13:56:02.494Z,30.82
2022-07-25T14:01:20.268Z,30.58
2022-07-25T14:06:29.447Z,30.42
2022-07-25T14:11:31.854Z,29.85
2022-07-25T14:16:44.912Z,29.87
2022-07-25T14:21:50.977Z,29.94
2022-07-25T14:26:55.197Z,29.49
2022-07-25T14:31:57.926Z,29.46
2022-07-25T14:37:00.763Z,29.09
2022-07-25T14:42:13.945Z,29.23
2022-07-25T14:47:41.751Z,29.45
2022-07-25T14:52:57.936Z,29.22
2022-07-25T14:58:02.723Z,28.73
2022-07-25T15:03:04.818Z,29.07
2022-07-25T15:08:07.175Z,28.55
2022-07-25T15:13:30.356Z,28.27
2022-07-25T15:18:42.545Z,28.21
2022-07-25T15:23:57.564Z,28.19
2022-07-25T15:29:00.546Z,28.25
2022-07-25T15:34:06.115Z,28.23
2022-07-25T15:39:09.442Z,28.19
2022-07-25T15:44:11.939Z,28.29
2022-07-25T15:49:15.671Z,28.25
2022-07-25T15:54:17.942Z,28.37
2022-07-25T15:59:20.140Z,28.24
2022-07-25T16:04:22.788Z,28.40
2022-07-25T16:09:25.787Z,28.33
2022-07-25T16:14:28.006Z,28.21
2022-07-25T16:19:30.435Z,27.97
2022-07-25T16:24:32.930Z,28.06
2022-07-25T16:29:35.227Z,28.20
2022-07-25T16:34:37.421Z,28.14
2022-07-25T16:39:40.452Z,28.22
2022-07-25T16:44:42.598Z,28.10
2022-07-25T16:49:45.085Z,28.06
2022-07-25T16:54:47.927Z,28.15
2022-07-25T17:00:01.068Z,28.30
2022-07-25T17:05:03.890Z,28.28
2022-07-25T17:10:07.179Z,28.32
2022-07-25T17:15:10.397Z,28.57
2022-07-25T17:20:16.215Z,28.65
2022-07-25T17:25:18.727Z,28.77
2022-07-25T17:30:21.380Z,29.18
2022-07-25T17:35:26.569Z,29.08
2022-07-25T17:40:29.124Z,29.39
2022-07-25T17:45:31.331Z,29.60
2022-07-25T17:50:34.024Z,30.16
2022-07-25T17:55:39.029Z,30.83
2022-07-25T18:00:42.190Z,31.20
2022-07-25T18:05:44.415Z,31.53
2022-07-25T18:10:46.745Z,32.14
2022-07-25T18:15:50.474Z,32.86
2022-07-25T18:20:53.028Z,33.08
2022-07-25T18:25:55.780Z,33.69
2022-07-25T18:31:05.962Z,34.39
2022-07-25T18:36:09.244Z,34.82
2022-07-25T18:41:28.785Z,35.20
2022-07-25T18:46:33.149Z,35.89
2022-07-25T18:51:35.818Z,36.39
2022-07-25T18:56:38.527Z,36.73
2022-07-25T19:01:40.744Z,37.13
2022-07-25T19:06:43.445Z,37.58
2022-07-25T19:11:48.062Z,37.99
2022-07-25T19:16:50.453Z,38.34
2022-07-25T19:21:52.784Z,38.60
2022-07-25T19:26:59.135Z,38.78
2022-07-25T19:32:01.232Z,39.03
2022-07-25T19:37:04.229Z,39.20
2022-07-25T19:42:08.879Z,39.30
2022-07-25T19:47:11.957Z,39.74
2022-07-25T19:52:14.804Z,40.09
2022-07-25T19:57:19.617Z,40.50
2022-07-25T20:02:36.617Z,40.62
2022-07-25T20:07:50.027Z,40.97
2022-07-25T20:12:52.215Z,41.18
2022-07-25T20:18:01.057Z,41.72
2022-07-25T20:23:04.168Z,42.05
2022-07-25T20:28:08.916Z,42.19
2022-07-25T20:33:14.159Z,42.24
2022-07-25T20:38:18.727Z,42.39
2022-07-25T20:43:24.699Z,42.93
2022-07-25T20:49:04.138Z,43.18
2022-07-25T20:54:15.986Z,43.27
2022-07-25T20:59:24.075Z,43.52
2022-07-25T21:04:26.733Z,43.84
2022-07-25T21:09:32.745Z,44.12
2022-07-25T21:14:48.580Z,44.36
2022-07-25T21:20:16.877Z,44.55
2022-07-25T21:25:25.994Z,44.75
2022-07-25T21:30:28.696Z,44.83
2022-07-25T21:35:53.188Z,44.99
2022-07-25T21:40:59.583Z,45.38
2022-07-25T21:46:05.128Z,45.47
2022-07-25T21:51:10.491Z,45.62
2022-07-25T21:56:36.073Z,45.79
2022-07-25T22:01:56.332Z,46.09
2022-07-25T22:06:59.377Z,46.20
2022-07-25T22:12:12.009Z,46.51
2022-07-25T22:17:49.270Z,46.75
2022-07-25T22:22:52.588Z,46.91
2022-07-25T22:27:55.490Z,47.16
2022-07-25T22:33:17.239Z,47.34
2022-07-25T22:38:44.390Z,47.67
2022-07-25T22:44:14.310Z,47.85
2022-07-25T22:49:25.186Z,48.07
2022-07-25T22:54:30.561Z,48.20
2022-07-25T22:59:32.963Z,48.38
2022-07-25T23:04:55.612Z,48.60
2022-07-25T23:10:04.254Z,48.78
2022-07-25T23:15:20.976Z,49.07
2022-07-25T23:20:57.136Z,49.15
2022-07-25T23:26:02.710Z,49.26
2022-07-25T23:31:05.263Z,49.49
2022-07-25T23:36:19.501Z,49.56
2022-07-25T23:41:22.686Z,49.74
2022-07-25T23:46:27.914Z,50.00
2022-07-25T23:51:32.797Z,50.06
2022-07-25T23:56:35.399Z,50.14
